createdAt,value
2023-02-14T05:00:27.576Z,93.23
2023-02-14T05:01:27.393Z,93.59
2023-02-14T05:02:27.445Z,93.65
2023-02-14T05:03:27.403Z,93.69
2023-02-14T05:04:27.358Z,93.96
2023-02-14T05:05:27.365Z,94.27
2023-02-14T05:06:27.406Z,94.90
2023-02-14T05:07:27.327Z,94.37
2023-02-14T05:08:27.330Z,94.58
2023-02-14T05:09:27.305Z,94.48
2023-02-14T05:10:27.301Z,94.48
2023-02-14T05:11:32.303Z,94.52
2023-02-14T05:12:27.286Z,94.48
2023-02-14T05:13:27.294Z,94.37
2023-02-14T05:14:27.252Z,94.48
2023-02-14T05:15:27.237Z,94.48
2023-02-14T05:16:27.396Z,94.48
2023-02-14T05:17:27.215Z,94.48
2023-02-14T05:18:27.323Z,94.27
2023-02-14T05:19:27.206Z,94.52
2023-02-14T05:20:27.194Z,94.17
2023-02-14T05:21:27.177Z,94.58
2023-02-14T05:22:32.208Z,94.79
2023-02-14T05:23:27.147Z,94.37
2023-02-14T05:24:27.144Z,94.52
2023-02-14T05:25:27.127Z,94.63
2023-02-14T05:26:27.115Z,95.04
2023-02-14T05:27:27.109Z,94.69
2023-02-14T05:28:27.091Z,94.84
2023-02-14T05:29:27.130Z,94.69
2023-02-14T05:30:27.193Z,94.79
2023-02-14T05:31:27.257Z,95.00
2023-02-14T05:32:27.072Z,95.21
2023-02-14T05:33:32.069Z,94.79
2023-02-14T05:34:27.046Z,94.90
2023-02-14T05:35:27.018Z,94.58
2023-02-14T05:36:27.002Z,95.15
2023-02-14T05:37:26.992Z,95.36
2023-02-14T05:38:26.983Z,95.10
2023-02-14T05:39:26.997Z,95.10
2023-02-14T05:40:26.961Z,95.15
2023-02-14T05:41:26.952Z,94.79
2023-02-14T05:42:27.237Z,95.00
2023-02-14T05:43:26.933Z,95.21
2023-02-14T05:44:32.021Z,95.00
2023-02-14T05:45:26.951Z,95.10
2023-02-14T05:46:26.899Z,95.00
2023-02-14T05:47:26.887Z,95.10
2023-02-14T05:48:26.898Z,95.10
2023-02-14T05:49:26.873Z,94.79
2023-02-14T05:50:26.856Z,94.79
2023-02-14T05:51:26.868Z,95.10
2023-02-14T05:52:26.830Z,95.00
2023-02-14T05:53:26.869Z,94.90
2023-02-14T05:54:26.819Z,95.00
2023-02-14T05:55:31.823Z,94.79
2023-02-14T05:56:26.785Z,95.10
2023-02-14T05:57:26.795Z,95.21
2023-02-14T05:58:26.760Z,95.17
2023-02-14T05:59:26.768Z,95.21
2023-02-14T06:00:26.749Z,95.17
2023-02-14T06:01:26.731Z,94.90
2023-02-14T06:02:26.797Z,95.06
2023-02-14T06:03:26.737Z,94.75
2023-02-14T06:04:26.809Z,95.17
2023-02-14T06:05:26.697Z,94.85
2023-02-14T06:06:31.704Z,94.75
2023-02-14T06:07:26.674Z,94.85
2023-02-14T06:08:26.713Z,94.75
2023-02-14T06:09:26.663Z,94.33
2023-02-14T06:10:26.640Z,94.64
2023-02-14T06:11:26.653Z,94.33
2023-02-14T06:12:26.615Z,94.33
2023-02-14T06:13:26.631Z,94.43
2023-02-14T06:14:26.603Z,94.29
2023-02-14T06:15:26.587Z,94.43
2023-02-14T06:16:26.594Z,94.23
2023-02-14T06:17:31.580Z,94.96
2023-02-14T06:18:26.548Z,94.75
2023-02-14T06:19:26.550Z,94.75
2023-02-14T06:20:26.548Z,94.70
2023-02-14T06:21:26.513Z,94.81
2023-02-14T06:22:26.513Z,94.92
2023-02-14T06:23:26.540Z,94.85
2023-02-14T06:24:26.497Z,94.96
2023-02-14T06:25:26.498Z,94.92
2023-02-14T06:26:26.468Z,94.85
2023-02-14T06:27:26.450Z,94.49
2023-02-14T06:28:31.490Z,94.70
2023-02-14T06:29:26.439Z,94.60
2023-02-14T06:30:26.621Z,94.39
2023-02-14T06:31:26.581Z,94.60
2023-02-14T06:32:26.394Z,94.64
2023-02-14T06:33:26.385Z,94.60
2023-02-14T06:34:26.395Z,94.39
2023-02-14T06:35:26.369Z,94.54
2023-02-14T06:36:26.487Z,93.77
2023-02-14T06:37:26.340Z,94.43
2023-02-14T06:38:26.336Z,94.92
2023-02-14T06:39:31.353Z,94.70
2023-02-14T06:40:26.319Z,94.29
2023-02-14T06:41:26.324Z,94.39
2023-02-14T06:42:26.284Z,94.49
2023-02-14T06:43:26.271Z,94.60
2023-02-14T06:44:26.282Z,94.49
2023-02-14T06:45:26.287Z,94.60
2023-02-14T06:46:26.324Z,94.76
2023-02-14T06:47:26.225Z,93.73
2023-02-14T06:48:26.222Z,93.41
2023-02-14T06:49:26.209Z,93.52
2023-02-14T06:50:31.224Z,93.35
2023-02-14T06:51:26.180Z,93.20
2023-02-14T06:52:26.195Z,93.20
2023-02-14T06:53:26.162Z,93.31
2023-02-14T06:54:26.160Z,93.41
2023-02-14T06:55:26.148Z,93.10
2023-02-14T06:56:26.125Z,93.10
2023-02-14T06:57:26.121Z,92.89
2023-02-14T06:58:26.111Z,93.05
2023-02-14T06:59:26.097Z,92.85
2023-02-14T07:00:26.110Z,92.64
2023-02-14T07:01:31.147Z,92.43
2023-02-14T07:02:26.101Z,92.33
2023-02-14T07:03:26.049Z,92.22
2023-02-14T07:04:26.039Z,92.22
2023-02-14T07:05:26.041Z,92.43
2023-02-14T07:06:26.011Z,92.43
2023-02-14T07:07:26.005Z,92.22
2023-02-14T07:08:26.434Z,91.91
2023-02-14T07:09:25.985Z,92.12
2023-02-14T07:10:25.986Z,92.12
2023-02-14T07:11:25.967Z,91.81
2023-02-14T07:12:30.970Z,92.12
2023-02-14T07:13:26.335Z,91.39
2023-02-14T07:14:25.936Z,91.91
2023-02-14T07:15:26.185Z,92.02
2023-02-14T07:16:25.932Z,92.12
2023-02-14T07:17:25.934Z,91.71
2023-02-14T07:18:25.883Z,90.97
2023-02-14T07:19:25.871Z,91.71
2023-02-14T07:20:25.875Z,91.53
2023-02-14T07:21:25.852Z,91.96
2023-02-14T07:22:25.835Z,92.52
2023-02-14T07:23:30.862Z,92.47
2023-02-14T07:24:25.813Z,92.27
2023-02-14T07:25:25.826Z,92.79
2023-02-14T07:26:25.817Z,91.85
2023-02-14T07:27:25.791Z,92.37
2023-02-14T07:28:25.767Z,92.68
2023-02-14T07:29:25.756Z,92.58
2023-02-14T07:30:25.803Z,92.72
2023-02-14T07:31:25.889Z,92.21
2023-02-14T07:32:25.879Z,92.31
2023-02-14T07:33:25.716Z,92.52
2023-02-14T07:34:30.736Z,92.41
2023-02-14T07:35:25.716Z,92.41
2023-02-14T07:36:25.711Z,93.04
2023-02-14T07:37:25.680Z,92.62
2023-02-14T07:38:25.675Z,92.72
2023-02-14T07:39:25.663Z,92.93
2023-02-14T07:40:25.643Z,93.46
2023-02-14T07:41:25.619Z,93.14
2023-02-14T07:42:25.606Z,93.24
2023-02-14T07:43:25.624Z,92.83
2023-02-14T07:44:25.585Z,93.04
2023-02-14T07:45:30.616Z,93.04
2023-02-14T07:46:25.679Z,93.35
2023-02-14T07:47:25.550Z,93.20
2023-02-14T07:48:25.541Z,92.89
2023-02-14T07:49:25.534Z,92.89
2023-02-14T07:50:25.518Z,92.72
2023-02-14T07:51:25.543Z,92.93
2023-02-14T07:52:25.523Z,92.83
2023-02-14T07:53:25.492Z,92.83
2023-02-14T07:54:25.489Z,93.24
2023-02-14T07:55:25.489Z,93.24
2023-02-14T07:56:30.488Z,93.87
2023-02-14T07:57:25.439Z,93.56
2023-02-14T07:58:25.429Z,94.08
2023-02-14T07:59:26.151Z,94.18
2023-02-14T08:00:25.407Z,94.18
2023-02-14T08:01:25.452Z,94.18
2023-02-14T08:02:25.382Z,94.18
2023-02-14T08:03:25.372Z,93.98
2023-02-14T08:04:25.409Z,94.81
2023-02-14T08:05:25.508Z,94.18
2023-02-14T08:06:25.352Z,93.87
2023-02-14T08:07:30.358Z,94.29
2023-02-14T08:08:25.404Z,94.18
2023-02-14T08:09:25.305Z,93.77
2023-02-14T08:10:25.291Z,93.56
2023-02-14T08:11:25.326Z,93.66
2023-02-14T08:12:25.300Z,93.77
2023-02-14T08:13:25.259Z,93.56
2023-02-14T08:14:25.244Z,93.24
2023-02-14T08:15:25.251Z,93.46
2023-02-14T08:16:25.293Z,93.52
2023-02-14T08:17:25.213Z,93.83
2023-02-14T08:18:30.228Z,93.31
2023-02-14T08:19:25.190Z,93.31
2023-02-14T08:20:25.196Z,92.74
2023-02-14T08:21:25.185Z,92.33
2023-02-14T08:22:25.158Z,92.64
2023-02-14T08:23:25.180Z,92.22
2023-02-14T08:24:25.140Z,92.33
2023-02-14T08:25:25.127Z,92.33
2023-02-14T08:26:25.117Z,92.60
2023-02-14T08:27:25.122Z,92.12
2023-02-14T08:28:25.109Z,91.28
2023-02-14T08:29:30.124Z,91.50
2023-02-14T08:30:25.101Z,91.50
2023-02-14T08:31:34.275Z,91.39
2023-02-14T08:32:26.320Z,92.06
2023-02-14T08:33:25.024Z,91.85
2023-02-14T08:34:25.032Z,91.75
2023-02-14T08:35:26.081Z,92.27
2023-02-14T08:36:24.988Z,92.58
2023-02-14T08:37:25.079Z,92.79
2023-02-14T08:38:24.965Z,92.37
2023-02-14T08:39:24.976Z,92.89
2023-02-14T08:40:29.963Z,92.89
2023-02-14T08:41:24.937Z,92.89
2023-02-14T08:42:24.934Z,92.99
2023-02-14T08:43:24.937Z,92.89
2023-02-14T08:44:24.916Z,92.89
2023-02-14T08:45:24.893Z,93.20
2023-02-14T08:46:25.001Z,92.99
2023-02-14T08:47:24.898Z,92.89
2023-02-14T08:48:24.855Z,93.52
2023-02-14T08:49:24.844Z,93.62
2023-02-14T08:50:24.859Z,93.52
2023-02-14T08:51:29.869Z,93.31
2023-02-14T08:52:24.832Z,93.35
2023-02-14T08:53:24.804Z,93.35
2023-02-14T08:54:24.793Z,93.66
2023-02-14T08:55:24.780Z,93.87
2023-02-14T08:56:24.859Z,94.08
2023-02-14T08:57:24.773Z,94.14
2023-02-14T08:58:24.761Z,93.73
2023-02-14T08:59:24.762Z,93.46
2023-02-14T09:00:24.845Z,93.31
2023-02-14T09:01:24.839Z,92.99
2023-02-14T09:02:29.818Z,93.10
2023-02-14T09:03:24.830Z,92.89
2023-02-14T09:04:24.704Z,93.31
2023-02-14T09:05:24.664Z,93.20
2023-02-14T09:06:24.654Z,93.31
2023-02-14T09:07:24.758Z,93.37
2023-02-14T09:08:24.677Z,92.85
2023-02-14T09:09:24.620Z,92.43
2023-02-14T09:10:24.661Z,92.37
2023-02-14T09:11:24.600Z,92.37
2023-02-14T09:12:24.594Z,92.72
2023-02-14T09:13:29.590Z,93.35
2023-02-14T09:14:24.558Z,93.31
2023-02-14T09:15:24.700Z,93.31
2023-02-14T09:16:24.631Z,93.41
2023-02-14T09:17:24.541Z,93.10
2023-02-14T09:18:24.601Z,93.20
2023-02-14T09:19:24.569Z,93.20
2023-02-14T09:20:24.501Z,93.35
2023-02-14T09:21:24.608Z,93.35
2023-02-14T09:22:24.528Z,93.66
2023-02-14T09:23:24.483Z,93.73
2023-02-14T09:24:29.468Z,93.41
2023-02-14T09:25:24.444Z,93.41
2023-02-14T09:26:24.492Z,93.37
2023-02-14T09:27:24.458Z,93.27
2023-02-14T09:28:24.399Z,92.74
2023-02-14T09:29:24.389Z,92.33
2023-02-14T09:30:24.568Z,92.43
2023-02-14T09:31:24.700Z,92.68
2023-02-14T09:32:24.411Z,92.58
2023-02-14T09:33:24.436Z,92.33
2023-02-14T09:34:24.331Z,92.64
2023-02-14T09:35:29.352Z,92.64
2023-02-14T09:36:24.320Z,92.43
2023-02-14T09:37:24.299Z,92.64
2023-02-14T09:38:24.297Z,92.54
2023-02-14T09:39:24.285Z,92.64
2023-02-14T09:40:24.341Z,92.33
2023-02-14T09:41:24.252Z,92.79
2023-02-14T09:42:24.239Z,92.43
2023-02-14T09:43:24.241Z,92.54
2023-02-14T09:44:24.225Z,91.60
2023-02-14T09:45:24.211Z,91.35
2023-02-14T09:46:29.240Z,91.08
2023-02-14T09:47:24.185Z,90.87
2023-02-14T09:48:25.337Z,91.18
2023-02-14T09:49:24.374Z,90.93
2023-02-14T09:50:24.242Z,90.83
2023-02-14T09:51:24.194Z,90.56
2023-02-14T09:52:24.128Z,90.25
2023-02-14T09:53:24.131Z,90.41
2023-02-14T09:54:24.105Z,90.10
2023-02-14T09:55:24.107Z,89.89
2023-02-14T09:56:24.085Z,90.20
2023-02-14T09:57:29.139Z,90.72
2023-02-14T09:58:24.071Z,90.52
2023-02-14T09:59:24.056Z,90.20
2023-02-14T10:00:24.042Z,89.95
2023-02-14T10:01:24.068Z,89.43
2023-02-14T10:02:24.196Z,89.18
2023-02-14T10:03:24.025Z,88.87
2023-02-14T10:04:24.009Z,88.67
2023-02-14T10:05:24.064Z,88.46
2023-02-14T10:06:23.968Z,88.60
2023-02-14T10:07:23.956Z,88.40
2023-02-14T10:08:28.987Z,89.06
2023-02-14T10:09:23.935Z,89.43
2023-02-14T10:10:23.933Z,89.27
2023-02-14T10:11:23.917Z,89.94
2023-02-14T10:12:23.931Z,90.87
2023-02-14T10:13:23.902Z,91.14
2023-02-14T10:14:23.886Z,90.93
2023-02-14T10:15:23.865Z,90.20
2023-02-14T10:16:26.704Z,90.52
2023-02-14T10:17:23.848Z,90.31
2023-02-14T10:18:23.877Z,90.52
2023-02-14T10:19:28.848Z,90.52
2023-02-14T10:20:23.816Z,90.16
2023-02-14T10:21:23.804Z,89.95
2023-02-14T10:22:23.788Z,89.64
2023-02-14T10:23:23.788Z,89.58
2023-02-14T10:24:23.766Z,90.20
2023-02-14T10:25:23.752Z,89.69
2023-02-14T10:26:23.747Z,90.62
2023-02-14T10:27:23.751Z,90.47
2023-02-14T10:28:23.731Z,90.26
2023-02-14T10:29:23.753Z,90.26
2023-02-14T10:30:28.858Z,90.33
2023-02-14T10:31:23.821Z,89.29
2023-02-14T10:32:23.905Z,89.23
2023-02-14T10:33:23.689Z,89.54
2023-02-14T10:34:23.657Z,89.39
2023-02-14T10:35:23.646Z,89.18
2023-02-14T10:36:23.633Z,89.08
2023-02-14T10:37:23.618Z,88.87
2023-02-14T10:38:23.613Z,89.29
2023-02-14T10:39:23.612Z,89.23
2023-02-14T10:40:23.593Z,89.18
2023-02-14T10:41:28.595Z,89.08
2023-02-14T10:42:23.564Z,88.98
2023-02-14T10:43:23.578Z,88.77
2023-02-14T10:44:23.552Z,88.56
2023-02-14T10:45:23.530Z,88.67
2023-02-14T10:46:23.590Z,88.87
2023-02-14T10:47:23.527Z,88.87
2023-02-14T10:48:23.497Z,88.87
2023-02-14T10:49:23.544Z,89.08
2023-02-14T10:50:23.482Z,88.77
2023-02-14T10:51:23.481Z,88.77
2023-02-14T10:52:28.484Z,88.77
2023-02-14T10:53:23.439Z,88.98
2023-02-14T10:54:23.435Z,88.98
2023-02-14T10:55:32.005Z,89.18
2023-02-14T10:56:24.411Z,88.46
2023-02-14T10:57:23.397Z,88.46
2023-02-14T10:58:23.383Z,88.21
2023-02-14T10:59:23.413Z,88.56
2023-02-14T11:00:23.370Z,88.52
2023-02-14T11:01:23.452Z,88.10
2023-02-14T11:02:23.349Z,88.31
2023-02-14T11:03:28.423Z,88.00
2023-02-14T11:04:23.322Z,88.25
2023-02-14T11:05:23.338Z,88.21
2023-02-14T11:06:23.307Z,88.21
2023-02-14T11:07:23.291Z,88.10
2023-02-14T11:08:23.277Z,87.90
2023-02-14T11:09:23.275Z,87.48
2023-02-14T11:10:23.280Z,87.38
2023-02-14T11:11:23.262Z,87.59
2023-02-14T11:12:23.238Z,87.69
2023-02-14T11:13:23.232Z,87.27
2023-02-14T11:14:28.288Z,87.59
2023-02-14T11:15:23.220Z,87.90
2023-02-14T11:16:23.229Z,87.69
2023-02-14T11:17:23.184Z,88.10
2023-02-14T11:18:23.167Z,88.31
2023-02-14T11:19:23.146Z,88.21
2023-02-14T11:20:23.146Z,87.45
2023-02-14T11:21:23.126Z,87.79
2023-02-14T11:22:23.122Z,88.15
2023-02-14T11:23:23.130Z,88.62
2023-02-14T11:24:23.127Z,88.42
2023-02-14T11:25:28.119Z,88.42
2023-02-14T11:26:23.070Z,88.62
2023-02-14T11:27:23.096Z,88.21
2023-02-14T11:28:23.079Z,88.21
2023-02-14T11:29:23.050Z,88.10
2023-02-14T11:30:23.163Z,88.10
2023-02-14T11:31:23.093Z,88.42
2023-02-14T11:32:23.016Z,87.96
2023-02-14T11:33:22.995Z,88.42
2023-02-14T11:34:22.978Z,88.21
2023-02-14T11:35:22.968Z,88.17
2023-02-14T11:36:28.015Z,87.96
2023-02-14T11:37:22.943Z,87.90
2023-02-14T11:38:22.937Z,87.90
2023-02-14T11:39:22.923Z,88.21
2023-02-14T11:40:22.918Z,88.42
2023-02-14T11:41:24.476Z,88.31
2023-02-14T11:42:22.886Z,88.42
2023-02-14T11:43:22.877Z,87.96
2023-02-14T11:44:22.946Z,87.55
2023-02-14T11:45:22.855Z,87.34
2023-02-14T11:46:22.994Z,87.17
2023-02-14T11:47:27.887Z,87.59
2023-02-14T11:48:36.589Z,87.90
2023-02-14T11:49:23.808Z,88.42
2023-02-14T11:50:22.825Z,88.42
2023-02-14T11:51:22.831Z,88.31
2023-02-14T11:52:22.779Z,88.31
2023-02-14T11:53:22.819Z,88.38
2023-02-14T11:54:22.752Z,88.17
2023-02-14T11:55:22.742Z,87.86
2023-02-14T11:56:22.744Z,87.19
2023-02-14T11:57:22.734Z,86.88
2023-02-14T11:58:27.833Z,86.78
2023-02-14T11:59:22.828Z,86.85
2023-02-14T12:00:22.700Z,86.33
2023-02-14T12:01:22.698Z,85.85
2023-02-14T12:02:22.763Z,86.88
2023-02-14T12:03:22.741Z,86.68
2023-02-14T12:04:22.675Z,86.61
2023-02-14T12:05:22.653Z,86.93
2023-02-14T12:06:22.641Z,86.93
2023-02-14T12:07:22.609Z,87.09
2023-02-14T12:08:22.603Z,86.72
2023-02-14T12:09:27.676Z,87.13
2023-02-14T12:10:22.581Z,87.03
2023-02-14T12:11:22.574Z,87.24
2023-02-14T12:12:22.550Z,86.88
2023-02-14T12:13:22.602Z,86.88
2023-02-14T12:14:22.579Z,86.88
2023-02-14T12:15:22.580Z,86.68
2023-02-14T12:16:22.523Z,86.54
2023-02-14T12:17:22.501Z,86.43
2023-02-14T12:18:22.518Z,86.36
2023-02-14T12:19:22.494Z,86.47
2023-02-14T12:20:27.499Z,86.36
2023-02-14T12:21:22.459Z,86.05
2023-02-14T12:22:22.439Z,86.93
2023-02-14T12:23:22.431Z,86.99
2023-02-14T12:24:22.426Z,86.68
2023-02-14T12:25:22.408Z,86.78
2023-02-14T12:26:22.398Z,86.68
2023-02-14T12:27:22.394Z,86.16
2023-02-14T12:28:22.375Z,86.33
2023-02-14T12:29:22.360Z,86.26
2023-02-14T12:30:22.388Z,86.95
2023-02-14T12:31:27.505Z,86.33
2023-02-14T12:32:22.322Z,85.85
2023-02-14T12:33:22.333Z,85.81
2023-02-14T12:34:22.323Z,85.91
2023-02-14T12:35:22.286Z,85.91
2023-02-14T12:36:22.286Z,85.81
2023-02-14T12:37:22.291Z,85.91
2023-02-14T12:38:22.340Z,85.60
2023-02-14T12:39:22.243Z,85.64
2023-02-14T12:40:22.255Z,86.36
2023-02-14T12:41:22.232Z,86.57
2023-02-14T12:42:27.241Z,86.68
2023-02-14T12:43:22.208Z,86.78
2023-02-14T12:44:22.231Z,86.78
2023-02-14T12:45:22.174Z,86.57
2023-02-14T12:46:22.216Z,86.68
2023-02-14T12:47:22.160Z,86.78
2023-02-14T12:48:22.141Z,86.85
2023-02-14T12:49:22.128Z,86.43
2023-02-14T12:50:22.171Z,86.22
2023-02-14T12:51:22.115Z,86.16
2023-02-14T12:52:22.109Z,86.54
2023-02-14T12:53:27.110Z,86.54
2023-02-14T12:54:22.096Z,86.33
2023-02-14T12:55:22.062Z,85.66
2023-02-14T12:56:22.070Z,85.35
2023-02-14T12:57:22.065Z,84.94
2023-02-14T12:58:22.037Z,84.83
2023-02-14T12:59:22.019Z,84.69
2023-02-14T13:00:22.008Z,85.11
2023-02-14T13:01:29.092Z,83.76
2023-02-14T13:02:23.101Z,83.86
2023-02-14T13:03:21.972Z,83.59
2023-02-14T13:04:26.993Z,84.83
2023-02-14T13:05:21.952Z,85.04
2023-02-14T13:06:21.962Z,85.66
2023-02-14T13:07:21.929Z,84.42
2023-02-14T13:08:21.933Z,85.25
2023-02-14T13:09:21.927Z,85.35
2023-02-14T13:10:21.896Z,85.04
2023-02-14T13:11:21.893Z,85.39
2023-02-14T13:12:21.896Z,85.71
2023-02-14T13:13:21.875Z,85.60
2023-02-14T13:14:21.850Z,85.39
2023-02-14T13:15:27.309Z,85.87
2023-02-14T13:16:21.920Z,85.66
2023-02-14T13:17:21.817Z,85.29
2023-02-14T13:18:21.838Z,85.19
2023-02-14T13:19:21.795Z,85.71
2023-02-14T13:20:21.781Z,85.91
2023-02-14T13:21:21.775Z,85.66
2023-02-14T13:22:21.781Z,84.98
2023-02-14T13:23:21.764Z,85.19
2023-02-14T13:24:21.762Z,85.71
2023-02-14T13:25:21.754Z,86.68
2023-02-14T13:26:27.153Z,86.57
2023-02-14T13:27:22.288Z,86.57
2023-02-14T13:28:21.741Z,87.09
2023-02-14T13:29:21.678Z,86.57
2023-02-14T13:30:21.761Z,86.57
2023-02-14T13:31:21.802Z,86.57
2023-02-14T13:32:21.652Z,86.99
2023-02-14T13:33:21.664Z,86.99
2023-02-14T13:34:21.772Z,86.99
2023-02-14T13:35:21.656Z,86.88
2023-02-14T13:36:21.610Z,86.57
2023-02-14T13:37:27.251Z,86.33
2023-02-14T13:38:21.616Z,86.29
2023-02-14T13:39:21.569Z,85.60
2023-02-14T13:40:21.568Z,86.12
2023-02-14T13:41:21.543Z,85.91
2023-02-14T13:42:21.527Z,86.22
2023-02-14T13:43:21.529Z,86.64
2023-02-14T13:44:21.525Z,86.36
2023-02-14T13:45:21.539Z,86.57
2023-02-14T13:46:21.533Z,86.95
2023-02-14T13:47:21.498Z,86.85
2023-02-14T13:48:26.500Z,86.64
2023-02-14T13:49:21.453Z,86.33
2023-02-14T13:50:21.734Z,85.60
2023-02-14T13:51:21.437Z,86.54
2023-02-14T13:52:21.419Z,86.33
2023-02-14T13:53:21.473Z,85.50
2023-02-14T13:54:21.395Z,86.22
2023-02-14T13:55:21.387Z,86.43
2023-02-14T13:56:21.369Z,86.12
2023-02-14T13:57:21.365Z,86.54
2023-02-14T13:58:21.354Z,86.54
2023-02-14T13:59:26.902Z,86.39
2023-02-14T14:00:21.365Z,86.18
2023-02-14T14:01:21.319Z,85.56
2023-02-14T14:02:21.311Z,85.77
2023-02-14T14:03:21.298Z,85.00
2023-02-14T14:04:21.324Z,85.25
2023-02-14T14:05:21.272Z,85.21
2023-02-14T14:06:21.261Z,84.59
2023-02-14T14:07:21.490Z,84.73
2023-02-14T14:08:21.348Z,84.63
2023-02-14T14:09:21.274Z,85.25
2023-02-14T14:10:26.267Z,85.04
2023-02-14T14:11:21.211Z,86.39
2023-02-14T14:12:21.199Z,86.43
2023-02-14T14:13:21.182Z,86.33
2023-02-14T14:14:21.229Z,86.74
2023-02-14T14:15:21.163Z,85.97
2023-02-14T14:16:21.172Z,86.22
2023-02-14T14:17:21.141Z,86.54
2023-02-14T14:18:21.127Z,86.54
2023-02-14T14:19:21.123Z,87.05
2023-02-14T14:20:21.113Z,86.54
2023-02-14T14:21:26.114Z,86.74
2023-02-14T14:22:21.081Z,86.54
2023-02-14T14:23:21.104Z,86.85
2023-02-14T14:24:21.076Z,86.64
2023-02-14T14:25:21.065Z,86.54
2023-02-14T14:26:21.035Z,86.64
2023-02-14T14:27:21.021Z,86.64
2023-02-14T14:28:21.073Z,86.85
2023-02-14T14:29:21.024Z,86.54
2023-02-14T14:30:21.107Z,86.85
2023-02-14T14:31:21.176Z,86.74
2023-02-14T14:32:25.990Z,86.64
2023-02-14T14:33:20.953Z,86.80
2023-02-14T14:34:20.977Z,86.39
2023-02-14T14:35:20.954Z,86.18
2023-02-14T14:36:20.920Z,86.18
2023-02-14T14:37:20.912Z,86.39
2023-02-14T14:38:20.904Z,85.31
2023-02-14T14:39:20.918Z,85.77
2023-02-14T14:40:20.880Z,85.52
2023-02-14T14:41:20.909Z,84.90
2023-02-14T14:42:20.853Z,85.21
2023-02-14T14:43:25.865Z,84.59
2023-02-14T14:44:20.834Z,84.38
2023-02-14T14:45:20.833Z,84.96
2023-02-14T14:46:20.850Z,84.23
2023-02-14T14:47:20.806Z,84.96
2023-02-14T14:48:20.785Z,84.75
2023-02-14T14:49:20.789Z,85.11
2023-02-14T14:50:20.775Z,85.11
2023-02-14T14:51:20.758Z,84.63
2023-02-14T14:52:20.742Z,85.42
2023-02-14T14:53:20.740Z,84.94
2023-02-14T14:54:25.755Z,85.35
2023-02-14T14:55:20.718Z,85.52
2023-02-14T14:56:20.702Z,85.14
2023-02-14T14:57:20.713Z,85.11
2023-02-14T14:58:20.678Z,85.73
2023-02-14T14:59:20.668Z,85.31
2023-02-14T15:00:20.680Z,84.80
2023-02-14T15:01:20.704Z,85.11
2023-02-14T15:02:20.666Z,84.69
2023-02-14T15:03:20.666Z,85.11
2023-02-14T15:04:20.668Z,84.90
2023-02-14T15:05:25.632Z,84.90
2023-02-14T15:06:20.608Z,84.86
2023-02-14T15:07:20.585Z,85.21
2023-02-14T15:08:20.572Z,85.21
2023-02-14T15:09:23.092Z,85.11
2023-02-14T15:10:20.564Z,85.21
2023-02-14T15:11:20.533Z,85.21
2023-02-14T15:12:20.521Z,85.11
2023-02-14T15:13:20.545Z,85.42
2023-02-14T15:14:20.504Z,85.42
2023-02-14T15:15:20.551Z,85.63
2023-02-14T15:16:25.508Z,86.04
2023-02-14T15:17:20.489Z,86.15
2023-02-14T15:18:20.470Z,85.63
2023-02-14T15:19:20.446Z,85.48
2023-02-14T15:20:20.525Z,85.52
2023-02-14T15:21:20.424Z,84.86
2023-02-14T15:22:20.413Z,84.86
2023-02-14T15:23:20.404Z,84.96
2023-02-14T15:24:20.401Z,84.90
2023-02-14T15:25:20.407Z,85.11
2023-02-14T15:26:20.366Z,84.90
2023-02-14T15:27:25.403Z,84.90
2023-02-14T15:28:20.346Z,85.73
2023-02-14T15:29:20.356Z,85.73
2023-02-14T15:30:20.551Z,85.63
2023-02-14T15:31:20.456Z,85.31
2023-02-14T15:32:20.299Z,85.46
2023-02-14T15:33:20.309Z,86.15
2023-02-14T15:34:20.315Z,86.60
2023-02-14T15:35:20.281Z,86.35
2023-02-14T15:36:20.286Z,86.25
2023-02-14T15:37:20.244Z,86.04
2023-02-14T15:38:25.252Z,86.25
2023-02-14T15:39:20.224Z,86.45
2023-02-14T15:40:20.252Z,86.15
2023-02-14T15:41:20.207Z,86.45
2023-02-14T15:42:20.220Z,86.60
2023-02-14T15:43:20.215Z,86.70
2023-02-14T15:44:20.175Z,86.80
2023-02-14T15:45:20.187Z,86.60
2023-02-14T15:46:20.239Z,86.49
2023-02-14T15:47:20.134Z,86.29
2023-02-14T15:48:20.132Z,86.80
2023-02-14T15:49:25.132Z,86.60
2023-02-14T15:50:20.120Z,86.80
2023-02-14T15:51:20.109Z,86.91
2023-02-14T15:52:20.078Z,87.01
2023-02-14T15:53:20.117Z,86.91
2023-02-14T15:54:20.052Z,87.12
2023-02-14T15:55:20.086Z,87.01
2023-02-14T15:56:20.041Z,87.12
2023-02-14T15:57:20.025Z,87.78
2023-02-14T15:58:20.007Z,87.47
2023-02-14T15:59:20.009Z,87.57
2023-02-14T16:00:25.051Z,87.88
2023-02-14T16:01:20.034Z,87.99
2023-02-14T16:02:19.972Z,87.78
2023-02-14T16:03:19.951Z,87.99
2023-02-14T16:04:19.934Z,87.99
2023-02-14T16:05:19.925Z,87.99
2023-02-14T16:06:19.919Z,87.99
2023-02-14T16:07:19.897Z,88.09
2023-02-14T16:08:19.884Z,88.09
2023-02-14T16:09:19.881Z,88.30
2023-02-14T16:10:19.859Z,88.09
2023-02-14T16:11:24.883Z,88.54
2023-02-14T16:12:19.847Z,88.65
2023-02-14T16:13:19.835Z,88.65
2023-02-14T16:14:19.812Z,88.54
2023-02-14T16:15:19.807Z,88.44
2023-02-14T16:16:19.827Z,88.75
2023-02-14T16:17:19.779Z,88.65
2023-02-14T16:18:19.777Z,88.96
2023-02-14T16:19:19.775Z,89.17
2023-02-14T16:20:19.772Z,89.42
2023-02-14T16:21:19.756Z,89.21
2023-02-14T16:22:24.795Z,89.42
2023-02-14T16:23:19.759Z,89.73
2023-02-14T16:24:19.753Z,90.35
2023-02-14T16:25:19.743Z,90.14
2023-02-14T16:26:19.749Z,89.62
2023-02-14T16:27:19.701Z,90.25
2023-02-14T16:28:19.704Z,90.35
2023-02-14T16:29:19.743Z,90.29
2023-02-14T16:30:19.703Z,90.87
2023-02-14T16:31:19.805Z,91.02
2023-02-14T16:32:19.760Z,90.77
2023-02-14T16:33:24.659Z,90.77
2023-02-14T16:34:19.594Z,90.66
2023-02-14T16:35:19.578Z,90.56
2023-02-14T16:36:19.575Z,90.70
2023-02-14T16:37:19.578Z,91.12
2023-02-14T16:38:19.538Z,90.50
2023-02-14T16:39:19.532Z,90.66
2023-02-14T16:40:19.518Z,91.02
2023-02-14T16:41:19.525Z,91.43
2023-02-14T16:42:19.505Z,91.12
2023-02-14T16:43:19.485Z,91.53
2023-02-14T16:44:24.500Z,90.91
2023-02-14T16:45:19.488Z,91.85
2023-02-14T16:46:19.516Z,91.43
2023-02-14T16:47:19.540Z,91.33
2023-02-14T16:48:19.451Z,91.85
2023-02-14T16:49:19.418Z,91.33
2023-02-14T16:50:19.402Z,91.22
2023-02-14T16:51:19.454Z,91.85
2023-02-14T16:52:20.272Z,91.43
2023-02-14T16:53:19.503Z,91.85
2023-02-14T16:54:19.410Z,92.16
2023-02-14T16:55:24.375Z,91.85
2023-02-14T16:56:19.339Z,92.20
2023-02-14T16:57:19.338Z,92.05
2023-02-14T16:58:19.312Z,91.99
2023-02-14T16:59:19.307Z,92.30
2023-02-14T17:00:19.293Z,92.47
2023-02-14T17:01:19.388Z,92.51
2023-02-14T17:02:19.366Z,92.47
2023-02-14T17:03:19.258Z,92.51
2023-02-14T17:04:19.265Z,92.51
2023-02-14T17:05:19.265Z,92.30
2023-02-14T17:06:24.256Z,92.41
2023-02-14T17:07:19.224Z,92.51
2023-02-14T17:08:19.202Z,92.20
2023-02-14T17:09:19.191Z,92.05
2023-02-14T17:10:19.200Z,92.16
2023-02-14T17:11:19.172Z,92.51
2023-02-14T17:12:19.170Z,92.20
2023-02-14T17:13:19.146Z,91.89
2023-02-14T17:14:19.147Z,92.20
2023-02-14T17:15:19.126Z,92.10
2023-02-14T17:16:19.187Z,92.20
2023-02-14T17:17:24.211Z,92.10
2023-02-14T17:18:19.086Z,92.51
2023-02-14T17:19:19.080Z,92.30
2023-02-14T17:20:19.096Z,92.30
2023-02-14T17:21:19.061Z,92.20
2023-02-14T17:22:19.063Z,92.20
2023-02-14T17:23:19.041Z,92.20
2023-02-14T17:24:19.028Z,92.72
2023-02-14T17:25:19.019Z,92.66
2023-02-14T17:26:19.002Z,92.76
2023-02-14T17:27:19.011Z,92.86
2023-02-14T17:28:23.996Z,92.86
2023-02-14T17:29:18.966Z,93.18
2023-02-14T17:30:19.071Z,93.29
2023-02-14T17:31:19.070Z,93.49
2023-02-14T17:32:18.968Z,93.60
2023-02-14T17:33:18.930Z,93.49
2023-02-14T17:34:18.914Z,93.70
2023-02-14T17:35:18.924Z,93.60
2023-02-14T17:36:18.909Z,94.06
2023-02-14T17:37:19.026Z,94.68
2023-02-14T17:38:18.872Z,94.37
2023-02-14T17:39:23.888Z,94.37
2023-02-14T17:40:18.851Z,94.32
2023-02-14T17:41:18.849Z,94.43
2023-02-14T17:42:18.855Z,94.37
2023-02-14T17:43:18.807Z,94.43
2023-02-14T17:44:18.800Z,94.22
2023-02-14T17:45:18.787Z,94.32
2023-02-14T17:46:18.976Z,94.16
2023-02-14T17:47:18.779Z,94.37
2023-02-14T17:48:18.751Z,94.47
2023-02-14T17:49:18.740Z,94.64
2023-02-14T17:50:23.760Z,94.22
2023-02-14T17:51:18.726Z,94.22
2023-02-14T17:52:18.744Z,94.22